createdAt,value
2019-06-08T00:00:03.385Z,15.8
2019-06-08T00:15:02.637Z,15.6
2019-06-08T00:30:03.034Z,15.4
2019-06-08T00:45:03.344Z,15.2
2019-06-08T01:00:10.138Z,15.2
2019-06-08T01:15:02.768Z,14.9
2019-06-08T01:30:02.812Z,14.9
2019-06-08T01:45:03.516Z,14.7
2019-06-08T02:00:28.582Z,15
2019-06-08T02:15:02.645Z,15.1
2019-06-08T02:30:02.961Z,14.6
2019-06-08T02:45:03.294Z,14.5
2019-06-08T03:00:02.542Z,14.2
2019-06-08T03:15:02.817Z,14.4
2019-06-08T03:30:15.717Z,14.2
2019-06-08T03:45:02.881Z,14.1
2019-06-08T04:00:12.516Z,14.2
2019-06-08T04:15:02.486Z,14.1
2019-06-08T04:30:02.822Z,14.4
2019-06-08T04:45:03.003Z,14.2
2019-06-08T05:00:11.448Z,14.2
2019-06-08T05:15:03.066Z,14.6
2019-06-08T05:30:08.267Z,15.1
2019-06-08T05:45:03.288Z,15.6
2019-06-08T06:00:08.711Z,15.4
2019-06-08T06:15:02.660Z,16
2019-06-08T06:30:03.278Z,16.2
2019-06-08T06:45:03.375Z,16.4
2019-06-08T07:00:02.653Z,16.2
2019-06-08T07:15:02.899Z,16.2
2019-06-08T07:30:03.298Z,16.6
2019-06-08T07:45:02.466Z,16.8
2019-06-08T08:00:09.042Z,17
2019-06-08T08:15:02.957Z,17.4
2019-06-08T08:30:03.444Z,17.6
2019-06-08T08:45:05.337Z,18.2
2019-06-08T09:00:04.837Z,18.4
2019-06-08T09:15:03.935Z,18.9
2019-06-08T09:30:04.737Z,19.3
2019-06-08T09:45:05.395Z,19.4
2019-06-08T10:00:13.028Z,18.8
2019-06-08T10:15:02.991Z,20.2
2019-06-08T10:30:05.165Z,20
2019-06-08T10:45:07.638Z,21.2
2019-06-08T11:00:11.231Z,21.1
2019-06-08T11:15:04.777Z,22.1
2019-06-08T11:30:09.798Z,21.8
2019-06-08T11:45:04.401Z,22.6
2019-06-08T12:00:09.069Z,22.6
2019-06-08T12:15:03.404Z,22.5
2019-06-08T12:30:08.591Z,22.8
2019-06-08T12:45:03.015Z,23.2
2019-06-08T13:00:03.387Z,23.5
2019-06-08T13:15:02.563Z,24.5
2019-06-08T13:30:02.864Z,23.4
2019-06-08T13:45:03.218Z,24.8
2019-06-08T14:00:02.423Z,23.6
2019-06-08T14:15:02.936Z,24.9
2019-06-08T14:30:03.070Z,24.9
2019-06-08T14:45:03.302Z,24.5
2019-06-08T15:00:08.597Z,23.2
2019-06-08T15:15:03.048Z,23.6
2019-06-08T15:30:03.466Z,23.1
2019-06-08T15:45:02.656Z,22.4
2019-06-08T16:00:02.954Z,22.1
2019-06-08T16:15:03.208Z,21.8
2019-06-08T16:30:08.907Z,21.3
2019-06-08T16:45:02.631Z,20.6
2019-06-08T17:00:29.758Z,19.9
2019-06-08T17:15:03.279Z,19.6
2019-06-08T17:30:08.208Z,19.6
2019-06-08T17:45:03.131Z,18.9
2019-06-08T18:00:03.741Z,18.7
2019-06-08T18:15:02.643Z,17.8
2019-06-08T18:30:08.159Z,17.6
2019-06-08T18:45:03.356Z,16.9
2019-06-08T19:00:08.291Z,16.3
2019-06-08T19:15:02.723Z,15.8
2019-06-08T19:30:03.050Z,15.5
2019-06-08T19:45:05.533Z,15.1
2019-06-08T20:00:02.877Z,14.7
2019-06-08T20:15:03.135Z,14.5
2019-06-08T20:30:08.301Z,14.1
2019-06-08T20:45:03.118Z,13.8
2019-06-08T21:00:08.296Z,13.4
2019-06-08T21:15:02.706Z,13.4
2019-06-08T21:30:08.577Z,13.1
2019-06-08T21:45:05.480Z,12.9
2019-06-08T22:00:19.172Z,12.8
2019-06-08T22:15:03.374Z,12.6
2019-06-08T22:30:09.487Z,12.7
2019-06-08T22:45:03.882Z,12.5
2019-06-08T23:00:12.267Z,12.4
2019-06-08T23:15:03.795Z,12.4
2019-06-08T23:30:03.835Z,12.3
2019-06-08T23:45:03.758Z,12.3
